Cherneski — AEGG — position and weather

sailwx.info

Track history (hours):
 
Tides and Currents Weather Stations Pressure Air Temp Water Temp Dewpoint Dewpoint Depression Visibility Wind Speed Wind Dir Waves Ship Positions

Cherneski

Last reported at 2018-May-22 18:59 UTC. Time now 2018-May-22 19:09 UTC.
Position N 39°53' W 075°13'.

Length 16 m.

Type: Dredging. MMSI: 366999302.

Date/timePositionNaut miles runAvg speedWind from/ knotsBaromVisibWave heightAir tempDewpointWater temp
2018-May-22 18:59N 39°53' W 075°13'0 0.0
2018-May-22 18:29N 39°53' W 075°13'0 0.0
2018-May-22 17:59N 39°53' W 075°13'0 0.0
2018-May-22 17:29N 39°53' W 075°13'0 0.0
2018-May-22 16:59N 39°53' W 075°13'0 0.0
2018-May-22 16:29N 39°53' W 075°13'0 0.0
2018-May-22 15:59N 39°53' W 075°13'0 0.0
2018-May-22 15:29N 39°53' W 075°13'0 0.0
2018-May-22 14:59N 39°53' W 075°13'0 0.0
2018-May-22 14:29N 39°53' W 075°13'0 0.0
2018-May-22 13:59N 39°53' W 075°13'0 0.0
2018-May-22 13:29N 39°53' W 075°13'0 0.0
2018-May-22 12:59N 39°53' W 075°13'0 0.0
2018-May-22 12:29N 39°53' W 075°13'0 0.0
2018-May-22 11:56N 39°53' W 075°13'0 0.0
2018-May-22 11:29N 39°53' W 075°13'0 0.0
2018-May-22 10:59N 39°53' W 075°13'0 0.0
2018-May-22 10:29N 39°53' W 075°13'0 0.0
2018-May-22 09:59N 39°53' W 075°13'0 0.0
2018-May-22 09:29N 39°53' W 075°13'0 0.0
2018-May-22 08:59N 39°53' W 075°13'0 0.0
2018-May-22 08:29N 39°53' W 075°13'0 0.0
2018-May-22 07:59N 39°53' W 075°13'0 0.0
2018-May-22 07:29N 39°53' W 075°13'0 0.0
2018-May-22 06:59N 39°53' W 075°13'0 0.0
2018-May-22 06:29N 39°53' W 075°13'0 0.0
2018-May-22 05:59N 39°53' W 075°13'0 0.0
2018-May-22 05:29N 39°53' W 075°13'0 0.0
2018-May-22 04:59N 39°53' W 075°13'0 0.0
2018-May-22 04:29N 39°53' W 075°13'0 0.0
2018-May-22 03:59N 39°53' W 075°13'0 0.0
2018-May-22 03:29N 39°53' W 075°13'0 0.0
2018-May-22 02:59N 39°53' W 075°13'0 0.0
2018-May-22 02:29N 39°53' W 075°13'0 0.0
2018-May-22 01:59N 39°53' W 075°13'0 0.0
2018-May-22 01:29N 39°53' W 075°13'0 0.0
2018-May-22 00:59N 39°53' W 075°13'0 0.0
2018-May-22 00:29N 39°53' W 075°13'0 0.0
2018-May-21 23:59N 39°53' W 075°13'0 0.0
2018-May-21 23:29N 39°53' W 075°13'0 0.0
2018-May-21 22:59N 39°53' W 075°13'0 0.0
2018-May-21 22:29N 39°53' W 075°13'0 0.0
2018-May-21 21:59N 39°53' W 075°13'0 0.0
2018-May-21 21:29N 39°53' W 075°13'0 0.0
2018-May-21 20:59N 39°53' W 075°13'0 0.0
2018-May-21 20:29N 39°53' W 075°13'0 0.0
2018-May-21 19:59N 39°53' W 075°13'0 0.0
2018-May-21 19:26N 39°53' W 075°13'0 0.0
2018-May-21 18:59N 39°53' W 075°13'0 0.0
2018-May-21 18:29N 39°53' W 075°13'0 0.0
2018-May-21 17:59N 39°53' W 075°13'0 0.0
2018-May-21 17:29N 39°53' W 075°13'0 0.0
2018-May-21 17:00N 39°53' W 075°13'0 0.0
2018-May-21 16:30N 39°53' W 075°13'3 5.5
2018-May-21 16:00N 39°53' W 075°09'4 9.0
2018-May-21 15:30N 39°57' W 075°08'3 6.8
2018-May-21 15:00N 39°54' W 075°08'3 5.8
2018-May-21 14:31N 39°53' W 075°12'1 2.1
2018-May-21 14:00N 39°54' W 075°13'1 1.4
2018-May-21 13:30N 39°55' W 075°12'2 4.1
2018-May-21 13:01N 39°53' W 075°12'0 0.5
2018-May-21 12:31N 39°53' W 075°13'0 0.0
2018-May-21 12:00N 39°53' W 075°13'0 0.0
2018-May-21 11:30N 39°53' W 075°13'0 0.0
2018-May-21 11:00N 39°53' W 075°13'0 0.0
2018-May-21 10:30N 39°53' W 075°13'0 0.0
2018-May-21 10:00N 39°53' W 075°13'0 0.0
2018-May-21 09:30N 39°53' W 075°13'0 0.0
2018-May-21 09:00N 39°53' W 075°13'0 0.0
2018-May-21 08:30N 39°53' W 075°13'0 0.0
2018-May-21 08:00N 39°53' W 075°13'0 0.0
2018-May-21 07:30N 39°53' W 075°13'0 0.0
2018-May-21 07:00N 39°53' W 075°13'0 0.0
2018-May-21 06:30N 39°53' W 075°13'0 0.0
2018-May-21 06:00N 39°53' W 075°13'0 0.0
2018-May-21 05:30N 39°53' W 075°13'0 0.0
2018-May-21 05:00N 39°53' W 075°13'0 0.0
2018-May-21 04:30N 39°53' W 075°13'0 0.0
2018-May-21 04:00N 39°53' W 075°13'0 0.0
2018-May-21 03:30N 39°53' W 075°13'0 0.0
2018-May-21 03:00N 39°53' W 075°13'0 0.0
2018-May-21 02:30N 39°53' W 075°13'0 0.0
2018-May-21 02:00N 39°53' W 075°13'0 0.0
2018-May-21 01:31N 39°53' W 075°13'0 0.0
2018-May-21 01:00N 39°53' W 075°13'0 0.0
2018-May-21 00:30N 39°53' W 075°13'0 0.0
2018-May-21 00:00N 39°53' W 075°13'0 0.0
2018-May-20 23:30N 39°53' W 075°13'0 0.0
2018-May-20 23:00N 39°53' W 075°13'0 0.0
2018-May-20 22:30N 39°53' W 075°13'0 0.0
2018-May-20 22:00N 39°53' W 075°13'0 0.0
2018-May-20 21:30N 39°53' W 075°13'0 0.0
2018-May-20 21:00N 39°53' W 075°13'0 0.0
2018-May-20 20:30N 39°53' W 075°13'0 0.0
2018-May-20 20:00N 39°53' W 075°13'0 0.0
2018-May-20 19:30N 39°53' W 075°13'0 0.0
2018-May-20 19:00N 39°53' W 075°13'0 0.0
2018-May-20 18:30N 39°53' W 075°13'0 0.0
2018-May-20 18:01N 39°53' W 075°13'0 0.0
2018-May-20 17:30N 39°53' W 075°13'0 0.0
2018-May-20 17:01N 39°53' W 075°13'0 0.0
2018-May-20 16:30N 39°53' W 075°13'0 0.0
2018-May-20 16:00N 39°53' W 075°13'0 0.0
2018-May-20 15:30N 39°53' W 075°13'0 0.0
2018-May-20 15:00N 39°53' W 075°13'0 0.0
2018-May-20 14:30N 39°53' W 075°13'0 0.0
2018-May-20 14:01N 39°53' W 075°13'0 0.0
2018-May-20 13:30N 39°53' W 075°13'0 0.0
2018-May-20 13:00N 39°53' W 075°13'0 0.0
2018-May-20 12:30N 39°53' W 075°13'0 0.0
2018-May-20 12:00N 39°53' W 075°13'0 0.0
2018-May-20 11:30N 39°53' W 075°13'0 0.0
2018-May-20 11:00N 39°53' W 075°13'0 0.0
2018-May-20 10:30N 39°53' W 075°13'0 0.0
2018-May-20 10:00N 39°53' W 075°13'0 0.0
2018-May-20 09:30N 39°53' W 075°13'0 0.0
2018-May-20 09:00N 39°53' W 075°13'0 0.0
2018-May-20 08:30N 39°53' W 075°13'0 0.0
2018-May-20 08:00N 39°53' W 075°13'0 0.0
2018-May-20 07:30N 39°53' W 075°13'0 0.0
2018-May-20 07:00N 39°53' W 075°13'0 0.0
2018-May-20 06:30N 39°53' W 075°13'0 0.0
2018-May-20 06:00N 39°53' W 075°13'0 0.0
2018-May-20 05:30N 39°53' W 075°13'0 0.0
2018-May-20 05:00N 39°53' W 075°13'0 0.0
2018-May-20 04:30N 39°53' W 075°13'0 0.0
2018-May-20 04:00N 39°53' W 075°13'0 0.0
2018-May-20 03:30N 39°53' W 075°13'0 0.0
2018-May-20 03:00N 39°53' W 075°13'0 0.0
2018-May-20 02:30N 39°53' W 075°13'0 0.0
2018-May-20 02:00N 39°53' W 075°13'0 0.0
2018-May-20 01:30N 39°53' W 075°13'0 0.0
2018-May-20 01:01N 39°53' W 075°13'0 0.0
2018-May-20 00:31N 39°53' W 075°13'0 0.0
2018-May-20 00:00N 39°53' W 075°13'0 0.0
2018-May-19 23:30N 39°53' W 075°13'0 0.0
2018-May-19 23:00N 39°53' W 075°13'0 0.0
2018-May-19 22:30N 39°53' W 075°13'0 0.0
2018-May-19 22:00N 39°53' W 075°13'0 0.0
2018-May-19 21:30N 39°53' W 075°13'0 0.0
2018-May-19 21:00N 39°53' W 075°13'0 0.0
2018-May-19 20:30N 39°53' W 075°13'0 0.0
2018-May-19 20:00N 39°53' W 075°13'0 0.0
2018-May-19 19:30N 39°53' W 075°13'0 0.0
2018-May-19 19:00N 39°53' W 075°13'0 0.0
2018-May-19 18:30N 39°53' W 075°13'0 0.0
2018-May-19 18:00N 39°53' W 075°13'0 0.0
2018-May-19 17:30N 39°53' W 075°13'0 0.0
2018-May-19 17:00N 39°53' W 075°13'0 0.0
2018-May-19 16:30N 39°53' W 075°13'0 0.0
2018-May-19 16:00N 39°53' W 075°13'0 0.0
2018-May-19 15:30N 39°53' W 075°13'0 0.0
2018-May-19 15:00N 39°53' W 075°13'0 0.0
2018-May-19 14:30N 39°53' W 075°13'0 0.0
2018-May-19 14:00N 39°53' W 075°13'0 0.0
2018-May-19 13:30N 39°53' W 075°13'0 0.0
2018-May-19 13:00N 39°53' W 075°13'0 0.0
2018-May-19 12:30N 39°53' W 075°13'0 0.0
2018-May-19 12:00N 39°53' W 075°13'0 0.0
2018-May-19 11:30N 39°53' W 075°13'0 0.0
2018-May-19 11:00N 39°53' W 075°13'0 0.0
2018-May-19 10:30N 39°53' W 075°13'0 0.0
2018-May-19 10:00N 39°53' W 075°13'0 0.0
2018-May-19 09:30N 39°53' W 075°13'0 0.0
2018-May-19 09:00N 39°53' W 075°13'0 0.0
2018-May-19 08:30N 39°53' W 075°13'0 0.0
2018-May-19 08:00N 39°53' W 075°13'0 0.0
2018-May-19 07:30N 39°53' W 075°13'0 0.0
2018-May-19 07:00N 39°53' W 075°13'0 0.0
2018-May-19 06:31N 39°53' W 075°13'0 0.0
2018-May-19 06:00N 39°53' W 075°13'0 0.0
2018-May-19 05:30N 39°53' W 075°13'0 0.0
2018-May-19 05:00N 39°53' W 075°13'0 0.0
2018-May-19 04:31N 39°53' W 075°13'0 0.0
2018-May-19 04:00N 39°53' W 075°13'0 0.0
2018-May-19 03:30N 39°53' W 075°13'0 0.0
2018-May-19 03:00N 39°53' W 075°13'0 0.0
2018-May-19 02:30N 39°53' W 075°13'0 0.0
2018-May-19 02:00N 39°53' W 075°13'0 0.0
2018-May-19 01:30N 39°53' W 075°13'0 0.0
2018-May-19 01:00N 39°53' W 075°13'0 0.0
2018-May-19 00:30N 39°53' W 075°13'0 0.0
2018-May-19 00:00N 39°53' W 075°13'0 0.0
2018-May-18 23:30N 39°53' W 075°13'0 0.0
2018-May-18 23:00N 39°53' W 075°13'0 0.0
2018-May-18 22:30N 39°53' W 075°13'0 0.0
2018-May-18 22:00N 39°53' W 075°13'0 0.0
2018-May-18 21:30N 39°53' W 075°13'0 0.0
2018-May-18 21:00N 39°53' W 075°13'0 0.0
2018-May-18 20:30N 39°53' W 075°13'0 0.0
2018-May-18 20:00N 39°53' W 075°13'0 0.0
2018-May-18 19:30N 39°53' W 075°13'0 0.0
2018-May-18 19:00N 39°53' W 075°13'0 0.0
2018-May-18 17:17N 39°53' W 075°13'0 0.0
2018-May-18 17:00N 39°53' W 075°13'0 0.0
2018-May-18 16:30N 39°53' W 075°13'0 0.0
2018-May-18 16:00N 39°53' W 075°13'0 0.0
2018-May-18 15:30N 39°53' W 075°13'0 0.0
2018-May-18 15:01N 39°53' W 075°13'0 0.0
2018-May-18 14:30N 39°53' W 075°13'0 0.0
2018-May-18 14:01N 39°53' W 075°13'0 0.0
2018-May-18 13:30N 39°53' W 075°13'0 0.0
2018-May-18 13:00N 39°53' W 075°13'0 0.0
2018-May-18 12:30N 39°53' W 075°13'0 0.0
2018-May-18 12:00N 39°53' W 075°13'0 0.0
2018-May-18 11:30N 39°53' W 075°13'0 0.0
2018-May-18 11:01N 39°53' W 075°13'0 0.0
2018-May-18 10:30N 39°53' W 075°13'0 0.0
2018-May-18 10:00N 39°53' W 075°13'0 0.0
2018-May-18 09:30N 39°53' W 075°13'0 0.0
2018-May-18 09:00N 39°53' W 075°13'0 0.0
2018-May-18 08:30N 39°53' W 075°13'0 0.0
2018-May-18 08:00N 39°53' W 075°13'0 0.0
2018-May-18 07:30N 39°53' W 075°13'0 0.0
2018-May-18 07:00N 39°53' W 075°13'0 0.0
2018-May-18 06:30N 39°53' W 075°13'0 0.0
2018-May-18 06:00N 39°53' W 075°13'0 0.0
2018-May-18 05:30N 39°53' W 075°13'0 0.0
2018-May-18 05:00N 39°53' W 075°13'0 0.0
2018-May-18 04:30N 39°53' W 075°13'0 0.0
2018-May-18 04:00N 39°53' W 075°13'0 0.0
2018-May-18 03:30N 39°53' W 075°13'0 0.0
2018-May-18 03:00N 39°53' W 075°13'0 0.0
2018-May-18 02:28N 39°53' W 075°13'0 0.0
2018-May-18 02:00N 39°53' W 075°13'0 0.0
2018-May-18 01:30N 39°53' W 075°13'0 0.0
2018-May-18 01:00N 39°53' W 075°13'0 0.0
2018-May-18 00:30N 39°53' W 075°13'0 0.0
2018-May-18 00:00N 39°53' W 075°13'0 0.0
2018-May-17 23:31N 39°53' W 075°13'0 0.0
2018-May-17 23:00N 39°53' W 075°13'0 0.0
2018-May-17 22:30N 39°53' W 075°13'0 0.0
2018-May-17 22:00N 39°53' W 075°13'0 0.0
2018-May-17 21:30N 39°53' W 075°13'0 0.0
2018-May-17 21:00N 39°53' W 075°13'0 0.0
2018-May-17 20:30N 39°53' W 075°13'0 0.0
2018-May-17 20:00N 39°53' W 075°13'0 0.0
2018-May-17 19:30N 39°53' W 075°13'0 0.0
2018-May-17 19:00N 39°53' W 075°13'0 0.0
2018-May-17 18:30N 39°53' W 075°13'0 0.0
2018-May-17 18:00N 39°53' W 075°13'0 0.0
2018-May-17 17:30N 39°53' W 075°13'0 0.3
2018-May-17 17:00N 39°52' W 075°13'917.7
2018-May-17 16:31N 39°49' W 075°23'713.7
2018-May-17 16:00N 39°44' W 075°30'0 0.7
2018-May-17 15:30N 39°44' W 075°30'0 0.1
2018-May-17 15:00N 39°44' W 075°30'1 1.4
2018-May-17 14:30N 39°45' W 075°30'1 1.1
2018-May-17 14:00N 39°44' W 075°30'1 1.0
2018-May-17 13:30N 39°45' W 075°30'2 4.6
2018-May-17 13:00N 39°47' W 075°28'1020.0
2018-May-17 12:30N 39°51' W 075°16'3 6.2
2018-May-17 12:00N 39°53' W 075°13'0 0.0
2018-May-17 11:30N 39°53' W 075°13'0 0.0
2018-May-17 11:00N 39°53' W 075°13'0 0.0
2018-May-17 10:30N 39°53' W 075°13'0 0.0
2018-May-17 09:57N 39°53' W 075°13'0 0.0
2018-May-17 09:26N 39°53' W 075°13'0 0.0
2018-May-17 08:56N 39°53' W 075°13'0 0.0
2018-May-17 08:30N 39°53' W 075°13'0 0.0
2018-May-17 08:00N 39°53' W 075°13'0 0.0
2018-May-17 07:29N 39°53' W 075°13'0 0.0
2018-May-17 07:00N 39°53' W 075°13'0 0.0
2018-May-17 06:29N 39°53' W 075°13'0 0.0
2018-May-17 06:00N 39°53' W 075°13'0 0.0
2018-May-17 05:30N 39°53' W 075°13'0 0.0
2018-May-17 05:00N 39°53' W 075°13'0 0.0
2018-May-17 04:30N 39°53' W 075°13'0 0.0
2018-May-17 03:59N 39°53' W 075°13'0 0.0
2018-May-17 03:29N 39°53' W 075°13'0 0.0
2018-May-17 03:00N 39°53' W 075°13'0 0.0
2018-May-17 02:30N 39°53' W 075°13'0 0.0
2018-May-17 02:00N 39°53' W 075°13'0 0.0
2018-May-17 01:30N 39°53' W 075°13'0 0.0
2018-May-17 00:56N 39°53' W 075°13'0 0.0
2018-May-17 00:30N 39°53' W 075°13'0 0.0
2018-May-16 23:59N 39°53' W 075°13'0 0.0
2018-May-16 23:29N 39°53' W 075°13'0 0.0
2018-May-16 22:59N 39°53' W 075°13'0 0.0
2018-May-16 22:29N 39°53' W 075°13'0 0.0
2018-May-16 21:59N 39°53' W 075°13'0 0.0
2018-May-16 21:29N 39°53' W 075°13'0 0.0
2018-May-16 20:59N 39°53' W 075°13'0 0.0
2018-May-16 20:29N 39°53' W 075°13'0 0.0
2018-May-16 20:00N 39°53' W 075°13'0 0.0
2018-May-16 19:29N 39°53' W 075°13'0 0.0
2018-May-16 18:59N 39°53' W 075°13'0 0.0
2018-May-16 18:29N 39°53' W 075°13'0 0.0
2018-May-16 17:59N 39°53' W 075°13'0 0.0
2018-May-16 17:29N 39°53' W 075°13'0 0.0
2018-May-16 16:59N 39°53' W 075°13'0 0.0
2018-May-16 16:29N 39°53' W 075°13'0 0.0
2018-May-16 16:00N 39°53' W 075°13'4 8.8
2018-May-16 15:31N 39°51' W 075°18'612.8
2018-May-16 15:00N 39°48' W 075°25'0 0.2
2018-May-16 14:30N 39°48' W 075°25'0 0.3
2018-May-16 13:51N 39°48' W 075°26'0 0.1
2018-May-16 13:30N 39°48' W 075°26'816.8
2018-May-16 13:00N 39°41' W 075°31'917.8
2018-May-16 12:30N 39°33' W 075°37'4 0.4
2018-May-16 00:20N 39°33' W 075°42'0 0.0
2018-May-15 22:53N 39°33' W 075°42'0 0.0
2018-May-15 22:29N 39°33' W 075°42'0 0.0
2018-May-15 21:59N 39°33' W 075°42'0 0.0
2018-May-15 21:29N 39°33' W 075°42'0 0.0
2018-May-15 20:59N 39°33' W 075°42'0 0.0
2018-May-15 20:29N 39°33' W 075°42'0 0.0
2018-May-15 19:59N 39°33' W 075°42'0 0.0
2018-May-15 19:26N 39°33' W 075°42'0 0.0
2018-May-15 18:59N 39°33' W 075°42'0 0.0
2018-May-15 18:29N 39°33' W 075°42'0 0.0
2018-May-15 17:59N 39°33' W 075°42'0 0.0
2018-May-15 17:29N 39°33' W 075°42'0 0.1
2018-May-15 17:00N 39°33' W 075°42'713.4
2018-May-15 16:30N 39°34' W 075°34'815.8
2018-May-15 16:00N 39°41' W 075°31'3 5.1
2018-May-15 15:30N 39°44' W 075°30'0 0.4
2018-May-15 15:00N 39°44' W 075°30'0 0.6
2018-May-15 14:30N 39°43' W 075°30'2 3.3
2018-May-15 14:00N 39°42' W 075°31'713.6
2018-May-15 13:30N 39°35' W 075°33'1 1.0
2018-May-15 13:00N 39°35' W 075°33'2 4.1
2018-May-15 12:28N 39°33' W 075°36'510.7
2018-May-15 11:59N 39°33' W 075°42'0 0.0
2018-May-15 11:26N 39°33' W 075°42'0 0.0
2018-May-15 10:56N 39°33' W 075°42'0 0.0
2018-May-15 10:29N 39°33' W 075°42'0 0.0
2018-May-15 09:56N 39°33' W 075°42'0 0.0
2018-May-15 09:29N 39°33' W 075°42'0 0.0
2018-May-15 08:54N 39°33' W 075°42'0 0.0
2018-May-15 08:23N 39°33' W 075°42'0 0.0
2018-May-15 07:52N 39°33' W 075°42'0 0.0
2018-May-15 07:30N 39°33' W 075°42'0 0.0
2018-May-15 06:57N 39°33' W 075°42'0 0.0
2018-May-15 06:30N 39°33' W 075°42'0 0.0
2018-May-15 06:00N 39°33' W 075°42'0 0.0
2018-May-15 05:27N 39°33' W 075°42'0 0.0
2018-May-15 04:57N 39°33' W 075°42'0 0.0
2018-May-15 04:30N 39°33' W 075°42'0 0.0
2018-May-15 04:00N 39°33' W 075°42'0 0.0
2018-May-15 03:30N 39°33' W 075°42'0 0.0
2018-May-15 03:00N 39°33' W 075°42'0 0.0
2018-May-15 02:30N 39°33' W 075°42'0 0.0
2018-May-15 02:00N 39°33' W 075°42'0 0.0
2018-May-15 01:27N 39°33' W 075°42'0 0.0
2018-May-15 01:01N 39°33' W 075°42'0 0.0
2018-May-15 00:21N 39°33' W 075°42'0 0.0
2018-May-15 00:00N 39°33' W 075°42'0 0.0
2018-May-14 23:30N 39°33' W 075°42'0 0.0
2018-May-14 23:00N 39°33' W 075°42'0 0.0
2018-May-14 22:30N 39°33' W 075°42'0 0.0
2018-May-14 22:00N 39°33' W 075°42'0 0.0
2018-May-14 21:30N 39°33' W 075°42'0 0.0
2018-May-14 20:57N 39°33' W 075°42'0 0.0
2018-May-14 20:30N 39°33' W 075°42'0 0.0
2018-May-14 19:57N 39°33' W 075°42'0 0.0
2018-May-14 19:30N 39°33' W 075°42'0 0.0
2018-May-14 18:57N 39°33' W 075°42'0 0.0
2018-May-14 18:30N 39°33' W 075°42'0 0.0
2018-May-14 18:00N 39°33' W 075°42'0 0.0
2018-May-14 17:30N 39°33' W 075°42'0 0.0
2018-May-14 16:57N 39°33' W 075°42'0 0.0
2018-May-14 16:27N 39°33' W 075°42'0 0.0
2018-May-14 16:00N 39°33' W 075°42'0 0.0
2018-May-14 15:27N 39°33' W 075°42'0 0.0
2018-May-14 15:00N 39°33' W 075°42'0 0.0
2018-May-14 14:30N 39°33' W 075°42'0 0.0
2018-May-14 13:57N 39°33' W 075°42'0 0.0
2018-May-14 13:30N 39°33' W 075°42'0 0.0
2018-May-14 13:00N 39°33' W 075°42'0 0.0
2018-May-13 08:03N 39°33' W 075°42'0 0.0
2018-May-13 08:00N 39°33' W 075°42'0 0.0
2018-May-13 07:25N 39°33' W 075°42'0 0.0
2018-May-13 06:47N 39°33' W 075°42'0 0.0
2018-May-13 03:11N 39°33' W 075°42'0 0.0
2018-May-13 02:55N 39°33' W 075°42'0 0.0
2018-May-13 02:25N 39°33' W 075°42'0 0.0
2018-May-13 01:57N 39°33' W 075°42'0 0.0
2018-May-13 01:31N 39°33' W 075°42'0 0.0
2018-May-13 00:54N 39°33' W 075°42'0 0.0
2018-May-12 23:54N 39°33' W 075°42'0 0.0
2018-May-12 23:23N 39°33' W 075°42'0 0.0
2018-May-12 22:59N 39°33' W 075°42'0 0.0
2018-May-12 22:25N 39°33' W 075°42'0 0.0
2018-May-12 21:47N 39°33' W 075°42'0 0.3
2018-May-12 21:30N 39°33' W 075°42'0 0.1
2018-May-12 20:40N 39°33' W 075°42'0 0.0
2018-May-12 20:27N 39°33' W 075°42'0 0.0
2018-May-12 20:00N 39°33' W 075°42'0 0.0
2018-May-12 19:27N 39°33' W 075°42'  
Track history (hours):
 
Tides and Currents Weather Stations Pressure Air Temp Water Temp Dewpoint Dewpoint Depression Visibility Wind Speed Wind Dir Waves Ship Positions

Cherneski

Last reported at 2018-May-22 18:59 UTC. Time now 2018-May-22 19:09 UTC.
Position N 39°53' W 075°13'.

Length 16 m.

Type: Dredging. MMSI: 366999302.

Date/timePositionNaut miles runAvg speedWind from/ knotsBaromVisibWave heightAir tempDewpointWater temp
2018-May-22 18:59N 39°53' W 075°13'0 0.0
2018-May-22 18:29N 39°53' W 075°13'0 0.0
2018-May-22 17:59N 39°53' W 075°13'0 0.0
2018-May-22 17:29N 39°53' W 075°13'0 0.0
2018-May-22 16:59N 39°53' W 075°13'0 0.0
2018-May-22 16:29N 39°53' W 075°13'0 0.0
2018-May-22 15:59N 39°53' W 075°13'0 0.0
2018-May-22 15:29N 39°53' W 075°13'0 0.0
2018-May-22 14:59N 39°53' W 075°13'0 0.0
2018-May-22 14:29N 39°53' W 075°13'0 0.0
2018-May-22 13:59N 39°53' W 075°13'0 0.0
2018-May-22 13:29N 39°53' W 075°13'0 0.0
2018-May-22 12:59N 39°53' W 075°13'0 0.0
2018-May-22 12:29N 39°53' W 075°13'0 0.0
2018-May-22 11:56N 39°53' W 075°13'0 0.0
2018-May-22 11:29N 39°53' W 075°13'0 0.0
2018-May-22 10:59N 39°53' W 075°13'0 0.0
2018-May-22 10:29N 39°53' W 075°13'0 0.0
2018-May-22 09:59N 39°53' W 075°13'0 0.0
2018-May-22 09:29N 39°53' W 075°13'0 0.0
2018-May-22 08:59N 39°53' W 075°13'0 0.0
2018-May-22 08:29N 39°53' W 075°13'0 0.0
2018-May-22 07:59N 39°53' W 075°13'0 0.0
2018-May-22 07:29N 39°53' W 075°13'0 0.0
2018-May-22 06:59N 39°53' W 075°13'0 0.0
2018-May-22 06:29N 39°53' W 075°13'0 0.0
2018-May-22 05:59N 39°53' W 075°13'0 0.0
2018-May-22 05:29N 39°53' W 075°13'0 0.0
2018-May-22 04:59N 39°53' W 075°13'0 0.0
2018-May-22 04:29N 39°53' W 075°13'0 0.0
2018-May-22 03:59N 39°53' W 075°13'0 0.0
2018-May-22 03:29N 39°53' W 075°13'0 0.0
2018-May-22 02:59N 39°53' W 075°13'0 0.0
2018-May-22 02:29N 39°53' W 075°13'0 0.0
2018-May-22 01:59N 39°53' W 075°13'0 0.0
2018-May-22 01:29N 39°53' W 075°13'0 0.0
2018-May-22 00:59N 39°53' W 075°13'0 0.0
2018-May-22 00:29N 39°53' W 075°13'0 0.0
2018-May-21 23:59N 39°53' W 075°13'0 0.0
2018-May-21 23:29N 39°53' W 075°13'0 0.0
2018-May-21 22:59N 39°53' W 075°13'0 0.0
2018-May-21 22:29N 39°53' W 075°13'0 0.0
2018-May-21 21:59N 39°53' W 075°13'0 0.0
2018-May-21 21:29N 39°53' W 075°13'0 0.0
2018-May-21 20:59N 39°53' W 075°13'0 0.0
2018-May-21 20:29N 39°53' W 075°13'0 0.0
2018-May-21 19:59N 39°53' W 075°13'0 0.0
2018-May-21 19:26N 39°53' W 075°13'0 0.0
2018-May-21 18:59N 39°53' W 075°13'0 0.0
2018-May-21 18:29N 39°53' W 075°13'0 0.0
2018-May-21 17:59N 39°53' W 075°13'0 0.0
2018-May-21 17:29N 39°53' W 075°13'0 0.0
2018-May-21 17:00N 39°53' W 075°13'0 0.0
2018-May-21 16:30N 39°53' W 075°13'3 5.5
2018-May-21 16:00N 39°53' W 075°09'4 9.0
2018-May-21 15:30N 39°57' W 075°08'3 6.8
2018-May-21 15:00N 39°54' W 075°08'3 5.8
2018-May-21 14:31N 39°53' W 075°12'1 2.1
2018-May-21 14:00N 39°54' W 075°13'1 1.4
2018-May-21 13:30N 39°55' W 075°12'2 4.1
2018-May-21 13:01N 39°53' W 075°12'0 0.5
2018-May-21 12:31N 39°53' W 075°13'0 0.0
2018-May-21 12:00N 39°53' W 075°13'0 0.0
2018-May-21 11:30N 39°53' W 075°13'0 0.0
2018-May-21 11:00N 39°53' W 075°13'0 0.0
2018-May-21 10:30N 39°53' W 075°13'0 0.0
2018-May-21 10:00N 39°53' W 075°13'0 0.0
2018-May-21 09:30N 39°53' W 075°13'0 0.0
2018-May-21 09:00N 39°53' W 075°13'0 0.0
2018-May-21 08:30N 39°53' W 075°13'0 0.0
2018-May-21 08:00N 39°53' W 075°13'0 0.0
2018-May-21 07:30N 39°53' W 075°13'0 0.0
2018-May-21 07:00N 39°53' W 075°13'0 0.0
2018-May-21 06:30N 39°53' W 075°13'0 0.0
2018-May-21 06:00N 39°53' W 075°13'0 0.0
2018-May-21 05:30N 39°53' W 075°13'0 0.0
2018-May-21 05:00N 39°53' W 075°13'0 0.0
2018-May-21 04:30N 39°53' W 075°13'0 0.0
2018-May-21 04:00N 39°53' W 075°13'0 0.0
2018-May-21 03:30N 39°53' W 075°13'0 0.0
2018-May-21 03:00N 39°53' W 075°13'0 0.0
2018-May-21 02:30N 39°53' W 075°13'0 0.0
2018-May-21 02:00N 39°53' W 075°13'0 0.0
2018-May-21 01:31N 39°53' W 075°13'0 0.0
2018-May-21 01:00N 39°53' W 075°13'0 0.0
2018-May-21 00:30N 39°53' W 075°13'0 0.0
2018-May-21 00:00N 39°53' W 075°13'0 0.0
2018-May-20 23:30N 39°53' W 075°13'0 0.0
2018-May-20 23:00N 39°53' W 075°13'0 0.0
2018-May-20 22:30N 39°53' W 075°13'0 0.0
2018-May-20 22:00N 39°53' W 075°13'0 0.0
2018-May-20 21:30N 39°53' W 075°13'0 0.0
2018-May-20 21:00N 39°53' W 075°13'0 0.0
2018-May-20 20:30N 39°53' W 075°13'0 0.0
2018-May-20 20:00N 39°53' W 075°13'0 0.0
2018-May-20 19:30N 39°53' W 075°13'0 0.0
2018-May-20 19:00N 39°53' W 075°13'0 0.0
2018-May-20 18:30N 39°53' W 075°13'0 0.0
2018-May-20 18:01N 39°53' W 075°13'0 0.0
2018-May-20 17:30N 39°53' W 075°13'0 0.0
2018-May-20 17:01N 39°53' W 075°13'0 0.0
2018-May-20 16:30N 39°53' W 075°13'0 0.0
2018-May-20 16:00N 39°53' W 075°13'0 0.0
2018-May-20 15:30N 39°53' W 075°13'0 0.0
2018-May-20 15:00N 39°53' W 075°13'0 0.0
2018-May-20 14:30N 39°53' W 075°13'0 0.0
2018-May-20 14:01N 39°53' W 075°13'0 0.0
2018-May-20 13:30N 39°53' W 075°13'0 0.0
2018-May-20 13:00N 39°53' W 075°13'0 0.0
2018-May-20 12:30N 39°53' W 075°13'0 0.0
2018-May-20 12:00N 39°53' W 075°13'0 0.0
2018-May-20 11:30N 39°53' W 075°13'0 0.0
2018-May-20 11:00N 39°53' W 075°13'0 0.0
2018-May-20 10:30N 39°53' W 075°13'0 0.0
2018-May-20 10:00N 39°53' W 075°13'0 0.0
2018-May-20 09:30N 39°53' W 075°13'0 0.0
2018-May-20 09:00N 39°53' W 075°13'0 0.0
2018-May-20 08:30N 39°53' W 075°13'0 0.0
2018-May-20 08:00N 39°53' W 075°13'0 0.0
2018-May-20 07:30N 39°53' W 075°13'0 0.0
2018-May-20 07:00N 39°53' W 075°13'0 0.0
2018-May-20 06:30N 39°53' W 075°13'0 0.0
2018-May-20 06:00N 39°53' W 075°13'0 0.0
2018-May-20 05:30N 39°53' W 075°13'0 0.0
2018-May-20 05:00N 39°53' W 075°13'0 0.0
2018-May-20 04:30N 39°53' W 075°13'0 0.0
2018-May-20 04:00N 39°53' W 075°13'0 0.0
2018-May-20 03:30N 39°53' W 075°13'0 0.0
2018-May-20 03:00N 39°53' W 075°13'0 0.0
2018-May-20 02:30N 39°53' W 075°13'0 0.0
2018-May-20 02:00N 39°53' W 075°13'0 0.0
2018-May-20 01:30N 39°53' W 075°13'0 0.0
2018-May-20 01:01N 39°53' W 075°13'0 0.0
2018-May-20 00:31N 39°53' W 075°13'0 0.0
2018-May-20 00:00N 39°53' W 075°13'0 0.0
2018-May-19 23:30N 39°53' W 075°13'0 0.0
2018-May-19 23:00N 39°53' W 075°13'0 0.0
2018-May-19 22:30N 39°53' W 075°13'0 0.0
2018-May-19 22:00N 39°53' W 075°13'0 0.0
2018-May-19 21:30N 39°53' W 075°13'0 0.0
2018-May-19 21:00N 39°53' W 075°13'0 0.0
2018-May-19 20:30N 39°53' W 075°13'0 0.0
2018-May-19 20:00N 39°53' W 075°13'0 0.0
2018-May-19 19:30N 39°53' W 075°13'0 0.0
2018-May-19 19:00N 39°53' W 075°13'0 0.0
2018-May-19 18:30N 39°53' W 075°13'0 0.0
2018-May-19 18:00N 39°53' W 075°13'0 0.0
2018-May-19 17:30N 39°53' W 075°13'0 0.0
2018-May-19 17:00N 39°53' W 075°13'0 0.0
2018-May-19 16:30N 39°53' W 075°13'0 0.0
2018-May-19 16:00N 39°53' W 075°13'0 0.0
2018-May-19 15:30N 39°53' W 075°13'0 0.0
2018-May-19 15:00N 39°53' W 075°13'0 0.0
2018-May-19 14:30N 39°53' W 075°13'0 0.0
2018-May-19 14:00N 39°53' W 075°13'0 0.0
2018-May-19 13:30N 39°53' W 075°13'0 0.0
2018-May-19 13:00N 39°53' W 075°13'0 0.0
2018-May-19 12:30N 39°53' W 075°13'0 0.0
2018-May-19 12:00N 39°53' W 075°13'0 0.0
2018-May-19 11:30N 39°53' W 075°13'0 0.0
2018-May-19 11:00N 39°53' W 075°13'0 0.0
2018-May-19 10:30N 39°53' W 075°13'0 0.0
2018-May-19 10:00N 39°53' W 075°13'0 0.0
2018-May-19 09:30N 39°53' W 075°13'0 0.0
2018-May-19 09:00N 39°53' W 075°13'0 0.0
2018-May-19 08:30N 39°53' W 075°13'0 0.0
2018-May-19 08:00N 39°53' W 075°13'0 0.0
2018-May-19 07:30N 39°53' W 075°13'0 0.0
2018-May-19 07:00N 39°53' W 075°13'0 0.0
2018-May-19 06:31N 39°53' W 075°13'0 0.0
2018-May-19 06:00N 39°53' W 075°13'0 0.0
2018-May-19 05:30N 39°53' W 075°13'0 0.0
2018-May-19 05:00N 39°53' W 075°13'0 0.0
2018-May-19 04:31N 39°53' W 075°13'0 0.0
2018-May-19 04:00N 39°53' W 075°13'0 0.0
2018-May-19 03:30N 39°53' W 075°13'0 0.0
2018-May-19 03:00N 39°53' W 075°13'0 0.0
2018-May-19 02:30N 39°53' W 075°13'0 0.0
2018-May-19 02:00N 39°53' W 075°13'0 0.0
2018-May-19 01:30N 39°53' W 075°13'0 0.0
2018-May-19 01:00N 39°53' W 075°13'0 0.0
2018-May-19 00:30N 39°53' W 075°13'0 0.0
2018-May-19 00:00N 39°53' W 075°13'0 0.0
2018-May-18 23:30N 39°53' W 075°13'0 0.0
2018-May-18 23:00N 39°53' W 075°13'0 0.0
2018-May-18 22:30N 39°53' W 075°13'0 0.0
2018-May-18 22:00N 39°53' W 075°13'0 0.0
2018-May-18 21:30N 39°53' W 075°13'0 0.0
2018-May-18 21:00N 39°53' W 075°13'0 0.0
2018-May-18 20:30N 39°53' W 075°13'0 0.0
2018-May-18 20:00N 39°53' W 075°13'0 0.0
2018-May-18 19:30N 39°53' W 075°13'0 0.0
2018-May-18 19:00N 39°53' W 075°13'0 0.0
2018-May-18 17:17N 39°53' W 075°13'0 0.0
2018-May-18 17:00N 39°53' W 075°13'0 0.0
2018-May-18 16:30N 39°53' W 075°13'0 0.0
2018-May-18 16:00N 39°53' W 075°13'0 0.0
2018-May-18 15:30N 39°53' W 075°13'0 0.0
2018-May-18 15:01N 39°53' W 075°13'0 0.0
2018-May-18 14:30N 39°53' W 075°13'0 0.0
2018-May-18 14:01N 39°53' W 075°13'0 0.0
2018-May-18 13:30N 39°53' W 075°13'0 0.0
2018-May-18 13:00N 39°53' W 075°13'0 0.0
2018-May-18 12:30N 39°53' W 075°13'0 0.0
2018-May-18 12:00N 39°53' W 075°13'0 0.0
2018-May-18 11:30N 39°53' W 075°13'0 0.0
2018-May-18 11:01N 39°53' W 075°13'0 0.0
2018-May-18 10:30N 39°53' W 075°13'0 0.0
2018-May-18 10:00N 39°53' W 075°13'0 0.0
2018-May-18 09:30N 39°53' W 075°13'0 0.0
2018-May-18 09:00N 39°53' W 075°13'0 0.0
2018-May-18 08:30N 39°53' W 075°13'0 0.0
2018-May-18 08:00N 39°53' W 075°13'0 0.0
2018-May-18 07:30N 39°53' W 075°13'0 0.0
2018-May-18 07:00N 39°53' W 075°13'0 0.0
2018-May-18 06:30N 39°53' W 075°13'0 0.0
2018-May-18 06:00N 39°53' W 075°13'0 0.0
2018-May-18 05:30N 39°53' W 075°13'0 0.0
2018-May-18 05:00N 39°53' W 075°13'0 0.0
2018-May-18 04:30N 39°53' W 075°13'0 0.0
2018-May-18 04:00N 39°53' W 075°13'0 0.0
2018-May-18 03:30N 39°53' W 075°13'0 0.0
2018-May-18 03:00N 39°53' W 075°13'0 0.0
2018-May-18 02:28N 39°53' W 075°13'0 0.0
2018-May-18 02:00N 39°53' W 075°13'0 0.0
2018-May-18 01:30N 39°53' W 075°13'0 0.0
2018-May-18 01:00N 39°53' W 075°13'0 0.0
2018-May-18 00:30N 39°53' W 075°13'0 0.0
2018-May-18 00:00N 39°53' W 075°13'0 0.0
2018-May-17 23:31N 39°53' W 075°13'0 0.0
2018-May-17 23:00N 39°53' W 075°13'0 0.0
2018-May-17 22:30N 39°53' W 075°13'0 0.0
2018-May-17 22:00N 39°53' W 075°13'0 0.0
2018-May-17 21:30N 39°53' W 075°13'0 0.0
2018-May-17 21:00N 39°53' W 075°13'0 0.0
2018-May-17 20:30N 39°53' W 075°13'0 0.0
2018-May-17 20:00N 39°53' W 075°13'0 0.0
2018-May-17 19:30N 39°53' W 075°13'0 0.0
2018-May-17 19:00N 39°53' W 075°13'0 0.0
2018-May-17 18:30N 39°53' W 075°13'0 0.0
2018-May-17 18:00N 39°53' W 075°13'0 0.0
2018-May-17 17:30N 39°53' W 075°13'0 0.3
2018-May-17 17:00N 39°52' W 075°13'917.7
2018-May-17 16:31N 39°49' W 075°23'713.7
2018-May-17 16:00N 39°44' W 075°30'0 0.7
2018-May-17 15:30N 39°44' W 075°30'0 0.1
2018-May-17 15:00N 39°44' W 075°30'1 1.4
2018-May-17 14:30N 39°45' W 075°30'1 1.1
2018-May-17 14:00N 39°44' W 075°30'1 1.0
2018-May-17 13:30N 39°45' W 075°30'2 4.6
2018-May-17 13:00N 39°47' W 075°28'1020.0
2018-May-17 12:30N 39°51' W 075°16'3 6.2
2018-May-17 12:00N 39°53' W 075°13'0 0.0
2018-May-17 11:30N 39°53' W 075°13'0 0.0
2018-May-17 11:00N 39°53' W 075°13'0 0.0
2018-May-17 10:30N 39°53' W 075°13'0 0.0
2018-May-17 09:57N 39°53' W 075°13'0 0.0
2018-May-17 09:26N 39°53' W 075°13'0 0.0
2018-May-17 08:56N 39°53' W 075°13'0 0.0
2018-May-17 08:30N 39°53' W 075°13'0 0.0
2018-May-17 08:00N 39°53' W 075°13'0 0.0
2018-May-17 07:29N 39°53' W 075°13'0 0.0
2018-May-17 07:00N 39°53' W 075°13'0 0.0
2018-May-17 06:29N 39°53' W 075°13'0 0.0
2018-May-17 06:00N 39°53' W 075°13'0 0.0
2018-May-17 05:30N 39°53' W 075°13'0 0.0
2018-May-17 05:00N 39°53' W 075°13'0 0.0
2018-May-17 04:30N 39°53' W 075°13'0 0.0
2018-May-17 03:59N 39°53' W 075°13'0 0.0
2018-May-17 03:29N 39°53' W 075°13'0 0.0
2018-May-17 03:00N 39°53' W 075°13'0 0.0
2018-May-17 02:30N 39°53' W 075°13'0 0.0
2018-May-17 02:00N 39°53' W 075°13'0 0.0
2018-May-17 01:30N 39°53' W 075°13'0 0.0
2018-May-17 00:56N 39°53' W 075°13'0 0.0
2018-May-17 00:30N 39°53' W 075°13'0 0.0
2018-May-16 23:59N 39°53' W 075°13'0 0.0
2018-May-16 23:29N 39°53' W 075°13'0 0.0
2018-May-16 22:59N 39°53' W 075°13'0 0.0
2018-May-16 22:29N 39°53' W 075°13'0 0.0
2018-May-16 21:59N 39°53' W 075°13'0 0.0
2018-May-16 21:29N 39°53' W 075°13'0 0.0
2018-May-16 20:59N 39°53' W 075°13'0 0.0
2018-May-16 20:29N 39°53' W 075°13'0 0.0
2018-May-16 20:00N 39°53' W 075°13'0 0.0
2018-May-16 19:29N 39°53' W 075°13'0 0.0
2018-May-16 18:59N 39°53' W 075°13'0 0.0
2018-May-16 18:29N 39°53' W 075°13'0 0.0
2018-May-16 17:59N 39°53' W 075°13'0 0.0
2018-May-16 17:29N 39°53' W 075°13'0 0.0
2018-May-16 16:59N 39°53' W 075°13'0 0.0
2018-May-16 16:29N 39°53' W 075°13'0 0.0
2018-May-16 16:00N 39°53' W 075°13'4 8.8
2018-May-16 15:31N 39°51' W 075°18'612.8
2018-May-16 15:00N 39°48' W 075°25'0 0.2
2018-May-16 14:30N 39°48' W 075°25'0 0.3
2018-May-16 13:51N 39°48' W 075°26'0 0.1
2018-May-16 13:30N 39°48' W 075°26'816.8
2018-May-16 13:00N 39°41' W 075°31'917.8
2018-May-16 12:30N 39°33' W 075°37'4 0.4
2018-May-16 00:20N 39°33' W 075°42'0 0.0
2018-May-15 22:53N 39°33' W 075°42'0 0.0
2018-May-15 22:29N 39°33' W 075°42'0 0.0
2018-May-15 21:59N 39°33' W 075°42'0 0.0
2018-May-15 21:29N 39°33' W 075°42'0 0.0
2018-May-15 20:59N 39°33' W 075°42'0 0.0
2018-May-15 20:29N 39°33' W 075°42'0 0.0
2018-May-15 19:59N 39°33' W 075°42'0 0.0
2018-May-15 19:26N 39°33' W 075°42'0 0.0
2018-May-15 18:59N 39°33' W 075°42'0 0.0
2018-May-15 18:29N 39°33' W 075°42'0 0.0
2018-May-15 17:59N 39°33' W 075°42'0 0.0
2018-May-15 17:29N 39°33' W 075°42'0 0.1
2018-May-15 17:00N 39°33' W 075°42'713.4
2018-May-15 16:30N 39°34' W 075°34'815.8
2018-May-15 16:00N 39°41' W 075°31'3 5.1
2018-May-15 15:30N 39°44' W 075°30'0 0.4
2018-May-15 15:00N 39°44' W 075°30'0 0.6
2018-May-15 14:30N 39°43' W 075°30'2 3.3
2018-May-15 14:00N 39°42' W 075°31'713.6
2018-May-15 13:30N 39°35' W 075°33'1 1.0
2018-May-15 13:00N 39°35' W 075°33'2 4.1
2018-May-15 12:28N 39°33' W 075°36'510.7
2018-May-15 11:59N 39°33' W 075°42'0 0.0
2018-May-15 11:26N 39°33' W 075°42'0 0.0
2018-May-15 10:56N 39°33' W 075°42'0 0.0
2018-May-15 10:29N 39°33' W 075°42'0 0.0
2018-May-15 09:56N 39°33' W 075°42'0 0.0
2018-May-15 09:29N 39°33' W 075°42'0 0.0
2018-May-15 08:54N 39°33' W 075°42'0 0.0
2018-May-15 08:23N 39°33' W 075°42'0 0.0
2018-May-15 07:52N 39°33' W 075°42'0 0.0
2018-May-15 07:30N 39°33' W 075°42'0 0.0
2018-May-15 06:57N 39°33' W 075°42'0 0.0
2018-May-15 06:30N 39°33' W 075°42'0 0.0
2018-May-15 06:00N 39°33' W 075°42'0 0.0
2018-May-15 05:27N 39°33' W 075°42'0 0.0
2018-May-15 04:57N 39°33' W 075°42'0 0.0
2018-May-15 04:30N 39°33' W 075°42'0 0.0
2018-May-15 04:00N 39°33' W 075°42'0 0.0
2018-May-15 03:30N 39°33' W 075°42'0 0.0
2018-May-15 03:00N 39°33' W 075°42'0 0.0
2018-May-15 02:30N 39°33' W 075°42'0 0.0
2018-May-15 02:00N 39°33' W 075°42'0 0.0
2018-May-15 01:27N 39°33' W 075°42'0 0.0
2018-May-15 01:01N 39°33' W 075°42'0 0.0
2018-May-15 00:21N 39°33' W 075°42'0 0.0
2018-May-15 00:00N 39°33' W 075°42'0 0.0
2018-May-14 23:30N 39°33' W 075°42'0 0.0
2018-May-14 23:00N 39°33' W 075°42'0 0.0
2018-May-14 22:30N 39°33' W 075°42'0 0.0
2018-May-14 22:00N 39°33' W 075°42'0 0.0
2018-May-14 21:30N 39°33' W 075°42'0 0.0
2018-May-14 20:57N 39°33' W 075°42'0 0.0
2018-May-14 20:30N 39°33' W 075°42'0 0.0
2018-May-14 19:57N 39°33' W 075°42'0 0.0
2018-May-14 19:30N 39°33' W 075°42'0 0.0
2018-May-14 18:57N 39°33' W 075°42'0 0.0
2018-May-14 18:30N 39°33' W 075°42'0 0.0
2018-May-14 18:00N 39°33' W 075°42'0 0.0
2018-May-14 17:30N 39°33' W 075°42'0 0.0
2018-May-14 16:57N 39°33' W 075°42'0 0.0
2018-May-14 16:27N 39°33' W 075°42'0 0.0
2018-May-14 16:00N 39°33' W 075°42'0 0.0
2018-May-14 15:27N 39°33' W 075°42'0 0.0
2018-May-14 15:00N 39°33' W 075°42'0 0.0
2018-May-14 14:30N 39°33' W 075°42'0 0.0
2018-May-14 13:57N 39°33' W 075°42'0 0.0
2018-May-14 13:30N 39°33' W 075°42'0 0.0
2018-May-14 13:00N 39°33' W 075°42'0 0.0
2018-May-13 08:03N 39°33' W 075°42'0 0.0
2018-May-13 08:00N 39°33' W 075°42'0 0.0
2018-May-13 07:25N 39°33' W 075°42'0 0.0
2018-May-13 06:47N 39°33' W 075°42'0 0.0
2018-May-13 03:11N 39°33' W 075°42'0 0.0
2018-May-13 02:55N 39°33' W 075°42'0 0.0
2018-May-13 02:25N 39°33' W 075°42'0 0.0
2018-May-13 01:57N 39°33' W 075°42'0 0.0
2018-May-13 01:31N 39°33' W 075°42'0 0.0
2018-May-13 00:54N 39°33' W 075°42'0 0.0
2018-May-12 23:54N 39°33' W 075°42'0 0.0
2018-May-12 23:23N 39°33' W 075°42'0 0.0
2018-May-12 22:59N 39°33' W 075°42'0 0.0
2018-May-12 22:25N 39°33' W 075°42'0 0.0
2018-May-12 21:47N 39°33' W 075°42'0 0.3
2018-May-12 21:30N 39°33' W 075°42'0 0.1
2018-May-12 20:40N 39°33' W 075°42'0 0.0
2018-May-12 20:27N 39°33' W 075°42'0 0.0
2018-May-12 20:00N 39°33' W 075°42'0 0.0
2018-May-12 19:27N 39°33' W 075°42'  

Dump ship's entire track history